El Trompillo Airport
SLET : now visible

Airfield :











YOU CAN JOIN US ON...

 
LOGIN :

Register | Disclaimer

   EN    FR    IT 

 









Legend :    VFR   Marginal VFR   IFR   Intensive IFR   Very Intensive IFR
Visi :
Ceiling :
>= 8 km
>= 3000ft
5 to 8 km
1000 to 3000 ft
1500m to 5 km
500 to 1000 ft
800 to 1500m
200 to 500 ft
< 800m
< 200 ft
Symbols :   Thunderstorms  Fog  Heavy snow  Heavy precipitations  Wind > 20 kt






- Airport Elevation : 1371 ft
- IATA code : SRZ


SLET - El Trompillo

CURRENT METAR :
  • 301400Z 33015G28KT 9999 SCTG017 BKN200 32/22 Q1012

EXPIRED METARs :
  • 301300Z 31013G23KT 9999 FEW017 BKN200 31/22 Q1012
  • 301200Z 32012KT 9999 FEW017 BKN200 29/23 Q1011

TAF COR TAF SLET
Valid from the 30 at 12:00 until the 01 at 12:00 UTC


301000Z 3012/0112 33010KT 9999 SCT015 SCT080 TX35/3019Z TN22/0110Z
TEMPO 3015/3017 33015G25KT BKN023 FEW025TCU BKN070
BECMG 0103/0105 18010KT 5000 RA SCT017 FEW030CB OVC070
SLLF FIR / South America



MET'MAP, your aeronautical weather chart ! - Copyright ORBIFLY December 2007 - Disclaimer

ORBIFLY MET'MAP TEAM :

Programming & Development : Alexandra Zaïnal
Concept & original design : Baudouin d'Aumeries
Assistance for programming : Marc-Olivier Méhu
Technical & hardware support : Manuel Goepfert

Contact : metmap@orbifly.com




SOURCES & CREDITS :

   NOAA       Earth
Advisory